Terminal Aerodrome Forecast
Issued by NWS Jacksonville, FL

Home | Current Version | Previous Version | Text Only | Print | Product List | Glossary On
Versions: 1 2 3 4 5 6 7 8 9 10 11 12 13 14 15
409
FTUS42 KJAX 291120
TAFGNV
TAF
KGNV 291120Z 2912/3012 27005KT P6SM FEW045 FEW250
     FM292300 24008KT P6SM VCTS SCT050CB SCT250
     FM300100 21005KT P6SM SCT050 SCT150 BKN250
     FM300400 00000KT P6SM FEW150 SCT250=

USA.gov is the U.S. government's official web portal to all federal, state and local government web resources and services.